createdAt,value
2024-01-22T00:00:22.697Z,13.02
2024-01-22T00:02:49.151Z,14.80
2024-01-22T00:05:15.830Z,12.80
2024-01-22T00:07:42.246Z,12.77
2024-01-22T00:10:09.568Z,12.82
2024-01-22T00:12:38.009Z,12.90
2024-01-22T00:15:05.010Z,12.43
2024-01-22T00:17:31.419Z,11.95
2024-01-22T00:19:57.866Z,12.85
2024-01-22T00:22:24.311Z,12.35
2024-01-22T00:24:50.805Z,13.23
2024-01-22T00:27:17.326Z,12.50
2024-01-22T00:29:43.848Z,12.05
2024-01-22T00:32:11.572Z,12.13
2024-01-22T00:34:38.143Z,12.23
2024-01-22T00:37:04.922Z,12.35
2024-01-22T00:39:31.354Z,11.63
2024-01-22T00:41:58.054Z,11.15
2024-01-22T00:44:24.568Z,11.35
2024-01-22T00:46:51.064Z,11.75
2024-01-22T00:49:17.776Z,10.30
2024-01-22T00:51:44.341Z,11.10
2024-01-22T00:54:11.835Z,10.52
2024-01-22T00:56:38.315Z,10.27
2024-01-22T00:59:04.775Z,10.02
2024-01-22T01:01:32.794Z,10.07
2024-01-22T01:03:59.275Z,9.65
2024-01-22T01:06:25.731Z,9.40
2024-01-22T01:08:52.216Z,8.48
2024-01-22T01:11:18.738Z,9.13
2024-01-22T01:13:48.131Z,9.98
2024-01-22T01:16:14.603Z,8.70
2024-01-22T01:18:41.176Z,9.32
2024-01-22T01:21:09.579Z,9.30
2024-01-22T01:23:36.100Z,8.73
2024-01-22T01:26:02.576Z,9.02
2024-01-22T01:28:29.079Z,8.48
2024-01-22T01:30:55.557Z,8.77
2024-01-22T01:33:22.095Z,9.38
2024-01-22T01:35:48.782Z,8.32
2024-01-22T01:38:15.327Z,9.50
2024-01-22T01:40:42.343Z,8.32
2024-01-22T01:43:08.816Z,9.25
2024-01-22T01:45:35.242Z,9.07
2024-01-22T01:48:02.669Z,9.35
2024-01-22T01:50:29.573Z,8.48
2024-01-22T01:52:56.283Z,8.50
2024-01-22T01:55:23.122Z,8.45
2024-01-22T01:57:57.266Z,8.30
2024-01-22T02:00:27.087Z,8.52
2024-01-22T02:02:53.880Z,8.45
2024-01-22T02:05:20.459Z,8.15
2024-01-22T02:07:47.113Z,9.50
2024-01-22T02:10:14.160Z,8.15
2024-01-22T02:12:42.626Z,9.18
2024-01-22T02:15:09.743Z,8.02
2024-01-22T02:17:36.497Z,7.57
2024-01-22T02:20:04.014Z,8.18
2024-01-22T02:22:30.458Z,7.53
2024-01-22T02:24:56.855Z,8.18
2024-01-22T02:27:23.606Z,8.52
2024-01-22T02:29:50.113Z,7.95
2024-01-22T02:32:16.572Z,8.57
2024-01-22T02:34:43.107Z,8.23
2024-01-22T02:37:09.630Z,7.72
2024-01-22T02:39:37.320Z,8.35
2024-01-22T02:42:03.994Z,8.60
2024-01-22T02:44:30.449Z,8.23
2024-01-22T02:46:56.915Z,7.95
2024-01-22T02:49:23.406Z,7.90
2024-01-22T02:51:50.035Z,7.40
2024-01-22T02:54:16.625Z,7.72
2024-01-22T02:56:43.202Z,7.05
2024-01-22T02:59:09.629Z,7.45
2024-01-22T03:01:36.092Z,7.25
2024-01-22T03:04:02.686Z,7.38
2024-01-22T03:06:29.312Z,7.70
2024-01-22T03:08:55.900Z,7.28
2024-01-22T03:11:23.416Z,6.65
2024-01-22T03:13:49.873Z,7.20
2024-01-22T03:16:16.515Z,6.95
2024-01-22T03:18:43.057Z,7.25
2024-01-22T03:21:09.781Z,7.93
2024-01-22T03:23:36.254Z,6.28
2024-01-22T03:26:03.196Z,7.20
2024-01-22T03:28:29.556Z,6.90
2024-01-22T03:30:55.946Z,6.53
2024-01-22T03:33:22.482Z,6.38
2024-01-22T03:35:49.038Z,7.03
2024-01-22T03:38:15.524Z,6.78
2024-01-22T03:40:41.976Z,6.53
2024-01-22T03:43:08.367Z,6.38
2024-01-22T03:45:34.796Z,6.80
2024-01-22T03:48:01.434Z,6.68
2024-01-22T03:50:27.996Z,6.45
2024-01-22T03:52:54.406Z,6.10
2024-01-22T03:55:20.954Z,6.43
2024-01-22T03:57:47.316Z,6.57
2024-01-22T04:00:14.168Z,5.85
2024-01-22T04:02:40.749Z,5.95
2024-01-22T04:05:08.988Z,6.18
2024-01-22T04:07:35.390Z,5.88
2024-01-22T04:10:01.878Z,6.15
2024-01-22T04:12:28.813Z,5.88
2024-01-22T04:14:55.452Z,6.68
2024-01-22T04:17:21.977Z,5.63
2024-01-22T04:19:48.486Z,5.68
2024-01-22T04:22:15.324Z,6.07
2024-01-22T04:24:41.783Z,5.80
2024-01-22T04:27:08.293Z,6.40
2024-01-22T04:29:35.698Z,5.90
2024-01-22T04:32:02.468Z,5.68
2024-01-22T04:34:29.195Z,5.28
2024-01-22T04:36:55.740Z,4.75
2024-01-22T04:39:22.244Z,4.57
2024-01-22T04:41:48.959Z,5.15
2024-01-22T04:44:15.429Z,4.35
2024-01-22T04:46:41.793Z,4.47
2024-01-22T04:49:09.904Z,4.55
2024-01-22T04:51:36.459Z,3.92
2024-01-22T04:54:02.886Z,4.30
2024-01-22T04:56:29.344Z,4.25
2024-01-22T04:58:55.763Z,3.80
2024-01-22T05:01:22.137Z,4.28
2024-01-22T05:03:48.586Z,4.50
2024-01-22T05:06:15.150Z,4.10
2024-01-22T05:08:41.672Z,4.45
2024-01-22T05:11:08.114Z,3.95
2024-01-22T05:13:34.495Z,3.90
2024-01-22T05:16:01.381Z,4.28
2024-01-22T05:18:27.946Z,4.53
2024-01-22T05:20:54.463Z,4.70
2024-01-22T05:23:20.923Z,4.60
2024-01-22T05:25:47.325Z,3.28
2024-01-22T05:28:13.789Z,5.03
2024-01-22T05:30:40.251Z,4.50
2024-01-22T05:33:06.792Z,4.15
2024-01-22T05:35:33.245Z,3.80
2024-01-22T05:37:59.672Z,4.03
2024-01-22T05:40:26.163Z,3.83
2024-01-22T05:42:52.594Z,4.43
2024-01-22T05:45:19.210Z,4.32
2024-01-22T05:47:46.877Z,4.03
2024-01-22T05:50:13.598Z,4.70
2024-01-22T05:52:40.088Z,3.80
2024-01-22T05:55:06.848Z,4.50
2024-01-22T05:57:33.291Z,3.60
2024-01-22T05:59:59.757Z,4.20
2024-01-22T06:02:26.973Z,3.95
2024-01-22T06:04:53.447Z,3.97
2024-01-22T06:07:19.971Z,4.07
2024-01-22T06:09:49.639Z,3.80
2024-01-22T06:12:21.508Z,3.78
2024-01-22T06:14:47.985Z,3.67
2024-01-22T06:17:14.412Z,3.80
2024-01-22T06:19:40.901Z,4.00
2024-01-22T06:22:07.327Z,3.78
2024-01-22T06:24:36.743Z,3.80
2024-01-22T06:27:04.529Z,4.03
2024-01-22T06:29:30.982Z,4.00
2024-01-22T06:31:57.437Z,3.40
2024-01-22T06:34:24.033Z,4.00
2024-01-22T06:36:50.529Z,4.15
2024-01-22T06:39:17.068Z,4.43
2024-01-22T06:41:43.890Z,3.88
2024-01-22T06:44:10.446Z,4.00
2024-01-22T06:46:37.018Z,4.10
2024-01-22T06:49:09.128Z,3.92
2024-01-22T06:51:45.058Z,4.07
2024-01-22T06:54:12.791Z,3.90
2024-01-22T06:56:39.371Z,4.28
2024-01-22T06:59:06.428Z,4.13
2024-01-22T07:01:32.873Z,3.63
2024-01-22T07:03:59.501Z,3.92
2024-01-22T07:06:26.955Z,3.95
2024-01-22T07:08:54.632Z,3.67
2024-01-22T07:11:21.067Z,4.20
2024-01-22T07:13:48.688Z,3.88
2024-01-22T07:16:15.163Z,4.18
2024-01-22T07:18:41.628Z,3.58
2024-01-22T07:21:08.404Z,3.15
2024-01-22T07:23:34.841Z,3.67
2024-01-22T07:26:01.698Z,4.13
2024-01-22T07:28:29.675Z,3.47
2024-01-22T07:30:56.075Z,3.42
2024-01-22T07:33:22.684Z,2.97
2024-01-22T07:35:49.270Z,3.47
2024-01-22T07:38:15.796Z,9.13
2024-01-22T07:40:43.108Z,11.10
2024-01-22T07:43:09.704Z,7.03
2024-01-22T07:45:36.342Z,5.72
2024-01-22T07:48:03.069Z,3.42
2024-01-22T07:50:29.536Z,3.88
2024-01-22T07:52:55.920Z,6.57
2024-01-22T07:55:22.380Z,6.38
2024-01-22T07:57:48.830Z,6.43
2024-01-22T08:00:15.933Z,3.42
2024-01-22T08:02:42.710Z,3.58
2024-01-22T08:05:15.160Z,3.78
2024-01-22T08:07:43.294Z,3.65
2024-01-22T08:10:10.357Z,3.95
2024-01-22T08:12:36.821Z,3.58
2024-01-22T08:15:03.448Z,3.33
2024-01-22T08:17:29.838Z,4.13
2024-01-22T08:19:56.426Z,3.45
2024-01-22T08:22:22.939Z,3.55
2024-01-22T08:24:49.546Z,3.55
2024-01-22T08:27:16.078Z,3.75
2024-01-22T08:29:42.726Z,3.10
2024-01-22T08:32:10.322Z,3.58
2024-01-22T08:34:39.452Z,3.10
2024-01-22T08:37:10.044Z,3.33
2024-01-22T08:42:57.697Z,3.63
2024-01-22T08:45:36.868Z,3.97
2024-01-22T08:48:03.384Z,3.72
2024-01-22T08:50:29.809Z,3.70
2024-01-22T08:52:56.304Z,3.95
2024-01-22T08:55:24.423Z,3.95
2024-01-22T08:57:51.164Z,4.07
2024-01-22T09:00:17.840Z,3.50
2024-01-22T09:02:45.550Z,3.72
2024-01-22T09:05:12.349Z,3.50
2024-01-22T09:07:39.172Z,3.10
2024-01-22T09:10:07.892Z,2.78
2024-01-22T09:12:35.179Z,2.60
2024-01-22T09:24:22.872Z,2.58
2024-01-22T09:26:49.485Z,2.25
2024-01-22T09:29:15.926Z,2.40
2024-01-22T09:31:42.428Z,2.42
2024-01-22T09:34:08.949Z,2.40
2024-01-22T09:36:35.614Z,2.90
2024-01-22T09:39:02.176Z,2.40
2024-01-22T09:41:29.061Z,2.88
2024-01-22T09:43:55.894Z,2.60
2024-01-22T09:46:23.349Z,2.85
2024-01-22T09:48:51.309Z,2.60
2024-01-22T09:51:18.302Z,3.05
2024-01-22T09:53:47.756Z,2.75
2024-01-22T09:56:18.098Z,2.50
2024-01-22T09:58:45.531Z,2.90
2024-01-22T10:01:12.378Z,2.33
2024-01-22T10:03:40.398Z,2.50
2024-01-22T10:06:07.341Z,3.10
2024-01-22T10:08:33.800Z,3.13
2024-01-22T10:11:00.348Z,3.20
2024-01-22T10:13:26.823Z,3.42
2024-01-22T10:15:53.254Z,3.05
2024-01-22T10:18:20.287Z,3.00
2024-01-22T10:20:48.149Z,3.55
2024-01-22T10:23:17.249Z,3.00
2024-01-22T10:25:44.020Z,3.30
2024-01-22T10:28:17.972Z,2.67
2024-01-22T10:30:45.551Z,2.90
2024-01-22T10:33:16.515Z,2.45
2024-01-22T10:35:44.060Z,3.03
2024-01-22T10:38:20.552Z,2.70
2024-01-22T10:40:47.981Z,3.10
2024-01-22T10:43:22.081Z,3.10
2024-01-22T10:45:50.173Z,3.38
2024-01-22T10:48:27.964Z,2.97
2024-01-22T10:51:05.952Z,3.60
2024-01-22T10:53:33.403Z,3.15
2024-01-22T10:56:03.021Z,3.20
2024-01-22T10:58:42.678Z,4.00
2024-01-22T11:01:16.654Z,3.78
2024-01-22T11:03:51.825Z,3.50
2024-01-22T11:06:28.707Z,3.55
2024-01-22T11:08:58.294Z,3.53
2024-01-22T11:11:26.725Z,3.60
2024-01-22T11:13:57.271Z,3.28
2024-01-22T11:16:24.238Z,3.92
2024-01-22T11:19:01.751Z,3.92
2024-01-22T11:21:39.471Z,3.83
2024-01-22T11:24:17.960Z,3.47
2024-01-22T11:26:47.895Z,4.03
2024-01-22T11:29:15.841Z,3.75
2024-01-22T11:31:42.890Z,4.15
2024-01-22T11:34:12.200Z,3.80
2024-01-22T11:37:04.850Z,4.25
2024-01-22T11:39:34.145Z,3.90
2024-01-22T11:42:01.192Z,4.25
2024-01-22T11:44:29.074Z,3.88
2024-01-22T11:47:05.974Z,4.85
2024-01-22T11:49:36.373Z,4.30
2024-01-22T11:52:12.835Z,4.03
2024-01-22T11:54:40.150Z,4.28
2024-01-22T11:57:06.781Z,4.32
2024-01-22T11:59:33.496Z,3.97
2024-01-22T12:02:12.881Z,4.32
2024-01-22T12:04:40.036Z,4.20
2024-01-22T12:07:07.804Z,4.60
2024-01-22T12:09:35.230Z,4.25
2024-01-22T12:12:04.672Z,4.75
2024-01-22T12:14:31.667Z,5.07
2024-01-22T12:17:02.156Z,5.10
2024-01-22T12:19:28.773Z,4.60
2024-01-22T12:21:55.474Z,4.72
2024-01-22T12:24:22.049Z,4.47
2024-01-22T12:26:54.782Z,4.47
2024-01-22T12:29:25.655Z,4.53
2024-01-22T12:32:05.837Z,4.53
2024-01-22T12:34:35.930Z,4.53
2024-01-22T12:37:20.848Z,4.30
2024-01-22T12:39:48.218Z,4.22
2024-01-22T12:42:22.483Z,4.40
2024-01-22T12:44:59.867Z,4.40
2024-01-22T12:47:32.786Z,3.97
2024-01-22T12:50:01.976Z,4.07
2024-01-22T12:52:28.814Z,4.53
2024-01-22T12:54:55.702Z,4.25
2024-01-22T12:57:23.665Z,4.63
2024-01-22T12:59:50.786Z,4.38
2024-01-22T13:02:17.550Z,4.00
2024-01-22T13:04:44.220Z,4.07
2024-01-22T13:07:11.819Z,4.57
2024-01-22T13:09:39.077Z,4.18
2024-01-22T13:12:07.680Z,4.13
2024-01-22T13:14:34.475Z,3.90
2024-01-22T13:17:02.620Z,3.97
2024-01-22T13:19:29.126Z,4.80
2024-01-22T13:21:57.825Z,4.03
2024-01-22T13:24:24.311Z,4.20
2024-01-22T13:26:50.810Z,4.43
2024-01-22T13:29:17.866Z,3.78
2024-01-22T13:31:44.294Z,4.68
2024-01-22T13:34:10.862Z,4.45
2024-01-22T13:36:37.391Z,4.50
2024-01-22T13:39:03.920Z,4.70
2024-01-22T13:41:32.723Z,4.03
2024-01-22T13:43:59.265Z,4.45
2024-01-22T13:46:25.675Z,4.18
2024-01-22T13:48:52.641Z,4.05
2024-01-22T13:51:20.007Z,3.85
2024-01-22T13:53:46.847Z,3.17
2024-01-22T13:56:13.862Z,3.05
2024-01-22T13:58:40.448Z,3.20
2024-01-22T14:01:09.138Z,2.78
2024-01-22T14:03:36.324Z,2.58
2024-01-22T14:06:09.810Z,2.70
2024-01-22T14:08:37.388Z,3.00
2024-01-22T14:11:05.529Z,2.75
2024-01-22T14:13:31.988Z,2.90
2024-01-22T14:15:58.633Z,3.95
2024-01-22T14:18:27.814Z,2.55
2024-01-22T14:20:54.495Z,2.58
2024-01-22T14:23:21.234Z,3.08
2024-01-22T14:25:48.013Z,2.97
2024-01-22T14:28:14.879Z,2.78
2024-01-22T14:30:41.544Z,3.20
2024-01-22T14:33:08.197Z,2.78
2024-01-22T14:35:34.645Z,3.15
2024-01-22T14:38:01.276Z,2.60
2024-01-22T14:40:27.945Z,2.72
2024-01-22T14:42:54.400Z,2.80
2024-01-22T14:45:20.876Z,2.75
2024-01-22T14:47:47.420Z,2.67
2024-01-22T14:50:16.262Z,3.28
2024-01-22T14:52:42.711Z,2.90
2024-01-22T14:55:09.172Z,2.97
2024-01-22T14:57:35.647Z,2.50
2024-01-22T15:00:02.125Z,2.83
2024-01-22T15:02:28.540Z,2.75
2024-01-22T15:04:55.917Z,3.15
2024-01-22T15:07:22.445Z,3.08
2024-01-22T15:09:50.632Z,2.90
2024-01-22T15:12:17.131Z,2.40
2024-01-22T15:14:43.615Z,2.60
2024-01-22T15:17:10.064Z,2.90
2024-01-22T15:19:39.646Z,2.33
2024-01-22T15:22:07.408Z,3.00
2024-01-22T15:24:34.194Z,2.55
2024-01-22T15:27:00.989Z,2.92
2024-01-22T15:29:27.450Z,2.40
2024-01-22T15:31:53.992Z,2.40
2024-01-22T15:34:21.209Z,2.78
2024-01-22T15:36:48.092Z,2.75
2024-01-22T15:39:14.667Z,2.58
2024-01-22T15:41:44.190Z,2.22
2024-01-22T15:44:12.093Z,2.42
2024-01-22T15:49:12.599Z,2.22
2024-01-22T15:51:39.060Z,2.03
2024-01-22T15:54:05.600Z,2.67
2024-01-22T15:56:32.179Z,2.80
2024-01-22T15:58:58.695Z,2.70
2024-01-22T16:01:27.093Z,2.40
2024-01-22T16:03:55.663Z,2.50
2024-01-22T16:06:24.901Z,3.08
2024-01-22T16:08:51.873Z,2.90
2024-01-22T16:11:18.351Z,2.10
2024-01-22T16:13:47.832Z,2.72
2024-01-22T16:16:15.802Z,2.55
2024-01-22T16:18:42.985Z,2.45
2024-01-22T16:21:11.681Z,2.38
2024-01-22T16:23:39.275Z,2.70
2024-01-22T16:26:08.691Z,2.90
2024-01-22T16:28:38.783Z,2.63
2024-01-22T16:31:05.250Z,2.70
2024-01-22T16:33:33.494Z,2.80
2024-01-22T16:36:00.257Z,2.85
2024-01-22T16:38:26.961Z,3.00
2024-01-22T16:40:53.467Z,2.80
2024-01-22T16:43:20.015Z,2.80
2024-01-22T16:45:47.825Z,3.30
2024-01-22T16:48:14.618Z,3.03
2024-01-22T16:50:41.925Z,2.95
2024-01-22T16:53:08.960Z,3.22
2024-01-22T16:55:35.497Z,3.13
2024-01-22T16:58:02.137Z,2.85
2024-01-22T17:00:28.718Z,3.17
2024-01-22T17:02:55.211Z,2.85
2024-01-22T17:05:21.695Z,2.55
2024-01-22T17:07:49.331Z,3.22
2024-01-22T17:10:16.293Z,1.90
2024-01-22T17:12:43.392Z,3.35
2024-01-22T17:15:10.479Z,2.50
2024-01-22T17:17:37.081Z,2.53
2024-01-22T17:20:05.429Z,2.92
2024-01-22T17:22:33.795Z,3.30
2024-01-22T17:25:00.518Z,3.47
2024-01-22T17:27:27.529Z,3.08
2024-01-22T17:29:54.114Z,4.38
2024-01-22T17:32:20.937Z,4.97
2024-01-22T17:34:48.537Z,3.78
2024-01-22T17:37:15.241Z,3.97
2024-01-22T17:39:42.850Z,3.95
2024-01-22T17:42:09.926Z,3.50
2024-01-22T17:44:39.377Z,2.78
2024-01-22T17:47:05.810Z,3.63
2024-01-22T17:49:32.411Z,2.97
2024-01-22T17:52:00.801Z,3.65
2024-01-22T17:54:27.310Z,3.17
2024-01-22T17:56:53.757Z,3.40
2024-01-22T17:59:20.169Z,3.25
2024-01-22T18:01:46.586Z,4.10
2024-01-22T18:04:13.060Z,3.90
2024-01-22T18:06:39.592Z,4.00
2024-01-22T18:09:07.209Z,3.70
2024-01-22T18:11:36.768Z,4.53
2024-01-22T18:14:03.515Z,4.90
2024-01-22T18:16:31.792Z,5.15
2024-01-22T18:18:58.258Z,4.55
2024-01-22T18:21:24.821Z,4.57
2024-01-22T18:23:51.360Z,4.80
2024-01-22T18:26:17.777Z,3.97
2024-01-22T18:28:44.319Z,4.53
2024-01-22T18:31:10.792Z,5.40
2024-01-22T18:33:39.266Z,4.65
2024-01-22T18:36:08.537Z,4.38
2024-01-22T18:38:34.988Z,4.80
2024-01-22T18:41:01.393Z,5.47
2024-01-22T18:43:27.832Z,4.78
2024-01-22T18:45:55.986Z,5.55
2024-01-22T18:48:22.869Z,5.25
2024-01-22T18:50:49.488Z,5.43
2024-01-22T18:53:18.264Z,4.65
2024-01-22T18:55:44.721Z,5.50
2024-01-22T18:58:11.077Z,4.45
2024-01-22T19:00:37.555Z,5.10
2024-01-22T19:03:05.243Z,4.40
2024-01-22T19:05:32.936Z,5.40
2024-01-22T19:07:59.388Z,5.28
2024-01-22T19:10:25.751Z,4.72
2024-01-22T19:12:52.738Z,4.80
2024-01-22T19:15:19.177Z,3.90
2024-01-22T19:20:12.909Z,3.83
2024-01-22T19:22:39.363Z,3.78
2024-01-22T19:25:06.113Z,4.07
2024-01-22T19:27:32.542Z,4.57
2024-01-22T19:29:59.010Z,3.80
2024-01-22T19:32:25.551Z,3.80
2024-01-22T19:34:52.073Z,4.07
2024-01-22T19:37:18.886Z,3.72
2024-01-22T19:39:46.976Z,3.47
2024-01-22T19:42:13.710Z,4.05
2024-01-22T19:44:40.099Z,4.30
2024-01-22T19:47:06.741Z,4.15
2024-01-22T19:49:33.226Z,4.55
2024-01-22T19:51:59.653Z,4.65
2024-01-22T19:54:26.081Z,4.30
2024-01-22T19:56:52.970Z,4.38
2024-01-22T19:59:19.505Z,4.47
2024-01-22T20:01:46.039Z,5.57
2024-01-22T20:04:13.997Z,5.03
2024-01-22T20:06:40.660Z,3.83
2024-01-22T20:09:07.342Z,4.10
2024-01-22T20:11:33.828Z,4.68
2024-01-22T20:14:00.628Z,4.40
2024-01-22T20:16:27.540Z,4.72
2024-01-22T20:18:54.645Z,4.70
2024-01-22T20:21:21.436Z,4.72
2024-01-22T20:23:56.834Z,4.22
2024-01-22T20:26:32.848Z,4.82
2024-01-22T20:29:01.896Z,4.38
2024-01-22T20:31:28.366Z,6.43
2024-01-22T20:34:00.799Z,4.80
2024-01-22T20:36:28.062Z,3.85
2024-01-22T20:38:54.912Z,4.70
2024-01-22T20:41:21.725Z,4.28
2024-01-22T20:43:48.259Z,4.65
2024-01-22T20:46:14.834Z,5.00
2024-01-22T20:48:41.301Z,4.68
2024-01-22T20:51:08.852Z,4.88
2024-01-22T20:53:36.355Z,4.03
2024-01-22T20:56:02.950Z,4.68
2024-01-22T20:58:30.513Z,4.53
2024-01-22T21:00:58.899Z,4.70
2024-01-22T21:03:26.861Z,4.50
2024-01-22T21:05:53.818Z,4.03
2024-01-22T21:08:20.571Z,4.10
2024-01-22T21:10:56.338Z,3.92
2024-01-22T21:13:23.005Z,3.92
2024-01-22T21:15:51.175Z,4.10
2024-01-22T21:18:18.230Z,4.18
2024-01-22T21:20:45.002Z,3.70
2024-01-22T21:23:11.422Z,4.50
2024-01-22T21:25:37.840Z,3.50
2024-01-22T21:28:04.560Z,4.18
2024-01-22T21:30:31.029Z,4.20
2024-01-22T21:32:59.411Z,3.78
2024-01-22T21:35:26.259Z,3.92
2024-01-22T21:37:52.717Z,4.18
2024-01-22T21:40:20.116Z,4.28
2024-01-22T21:42:49.402Z,4.13
2024-01-22T21:45:16.002Z,4.30
2024-01-22T21:47:42.498Z,4.70
2024-01-22T21:50:10.299Z,5.00
2024-01-22T21:52:37.194Z,4.35
2024-01-22T21:55:11.689Z,4.25
2024-01-22T21:57:39.247Z,3.72
2024-01-22T22:00:12.008Z,4.35
2024-01-22T22:02:39.694Z,3.85
2024-01-22T22:05:07.025Z,4.40
2024-01-22T22:07:33.674Z,4.00
2024-01-22T22:10:00.116Z,3.58
2024-01-22T22:12:28.577Z,3.20
2024-01-22T22:14:55.132Z,4.30
2024-01-22T22:17:21.778Z,3.78
2024-01-22T22:19:48.399Z,4.22
2024-01-22T22:22:15.200Z,3.70
2024-01-22T22:27:35.111Z,4.13
2024-01-22T22:30:03.037Z,4.13
2024-01-22T22:32:29.753Z,4.22
2024-01-22T22:34:56.511Z,3.63
2024-01-22T22:37:26.500Z,4.18
2024-01-22T22:42:48.705Z,4.28
2024-01-22T22:45:15.420Z,3.22
2024-01-22T22:47:41.956Z,3.67
2024-01-22T22:50:08.770Z,2.83
2024-01-22T22:52:35.304Z,2.80
2024-01-22T22:55:01.791Z,2.72
2024-01-22T22:57:29.853Z,2.95
2024-01-22T23:00:03.696Z,2.90
2024-01-22T23:03:15.950Z,2.80
2024-01-22T23:07:10.633Z,2.80
2024-01-22T23:10:05.119Z,2.50
2024-01-22T23:12:48.430Z,2.13
2024-01-22T23:15:20.234Z,2.75
2024-01-22T23:18:08.355Z,3.05
2024-01-22T23:24:15.291Z,2.45
2024-01-22T23:30:43.380Z,2.60
2024-01-22T23:53:15.537Z,2.83
2024-01-22T23:56:37.374Z,2.22
